CMB566 EPRZ-EPWA
Flight info
| Callsign | CMB566 |
|---|---|
| Flight time | 0h 42m |
| Altitude | 20000 |
| Route | ETITI DCT LOGDA |
| Aircraft | B744/H-SDE3FGHIM1M2RWXY/LB1 |
Departure
| Time | 2026-04-20 17:46 |
|---|---|
| Airport | Rzeszów-Jasionka Airport (EPRZ) |
Arrival
| Time | 2026-04-20 18:28 |
|---|---|
| Airport | Warsaw Chopin Airport (EPWA) |
| Time | Latitude | Longitude | Altitude | Speed | Heading |
|---|---|---|---|---|---|
| 2026-04-20 17:28 | 50.11264 | 22.00887 | 694 ft | 0 kts | 360° |
| 2026-04-20 17:38 | 50.11259 | 22.00887 | 694 ft | 2 kts | 2° |
| 2026-04-20 17:38 | 50.11244 | 22.00885 | 693 ft | 2 kts | 6° |
| 2026-04-20 17:39 | 50.11229 | 22.00883 | 693 ft | 2 kts | 4° |
| 2026-04-20 17:39 | 50.11216 | 22.00881 | 693 ft | 0 kts | 4° |
| 2026-04-20 17:39 | 50.11205 | 22.00881 | 692 ft | 2 kts | 352° |
| 2026-04-20 17:39 | 50.11192 | 22.00887 | 692 ft | 2 kts | 327° |
| 2026-04-20 17:40 | 50.11182 | 22.00902 | 692 ft | 1 kts | 306° |
| 2026-04-20 17:40 | 50.11175 | 22.00921 | 692 ft | 2 kts | 287° |
| 2026-04-20 17:40 | 50.11173 | 22.00936 | 692 ft | 0 kts | 271° |
| 2026-04-20 17:40 | 50.11173 | 22.00945 | 692 ft | 0 kts | 270° |
| 2026-04-20 17:43 | 50.11173 | 22.00866 | 692 ft | 17 kts | 270° |
| 2026-04-20 17:43 | 50.11176 | 22.00657 | 692 ft | 19 kts | 271° |
| 2026-04-20 17:43 | 50.11180 | 22.00461 | 693 ft | 16 kts | 272° |
| 2026-04-20 17:44 | 50.11182 | 22.00307 | 695 ft | 12 kts | 271° |
| 2026-04-20 17:44 | 50.11164 | 22.00195 | 695 ft | 9 kts | 227° |
| 2026-04-20 17:44 | 50.11109 | 22.00171 | 694 ft | 8 kts | 182° |
| 2026-04-20 17:44 | 50.11055 | 22.00170 | 693 ft | 8 kts | 181° |
| 2026-04-20 17:45 | 50.11019 | 22.00204 | 692 ft | 6 kts | 95° |
| 2026-04-20 17:45 | 50.11017 | 22.00300 | 692 ft | 20 kts | 92° |
| 2026-04-20 17:45 | 50.11006 | 22.00938 | 691 ft | 101 kts | 90° |
| 2026-04-20 17:45 | 50.10993 | 22.02408 | 745 ft | 167 kts | 90° |
| 2026-04-20 17:46 | 50.10970 | 22.04310 | 1419 ft | 189 kts | 90° |
| 2026-04-20 17:46 | 50.10936 | 22.06372 | 2462 ft | 197 kts | 89° |
| 2026-04-20 17:46 | 50.10937 | 22.08406 | 3561 ft | 180 kts | 87° |
| 2026-04-20 17:46 | 50.10905 | 22.10391 | 4001 ft | 192 kts | 91° |
| 2026-04-20 17:47 | 50.10860 | 22.12427 | 4633 ft | 195 kts | 88° |
| 2026-04-20 17:47 | 50.10827 | 22.14532 | 5298 ft | 197 kts | 90° |
| 2026-04-20 17:47 | 50.10784 | 22.16673 | 5915 ft | 200 kts | 88° |
| 2026-04-20 17:47 | 50.11057 | 22.18755 | 6496 ft | 201 kts | 60° |
| 2026-04-20 17:48 | 50.12063 | 22.20232 | 7054 ft | 209 kts | 27° |
| 2026-04-20 17:48 | 50.13506 | 22.20550 | 7651 ft | 218 kts | 354° |
| 2026-04-20 17:48 | 50.14921 | 22.19710 | 8285 ft | 224 kts | 336° |
| 2026-04-20 17:48 | 50.16338 | 22.18655 | 8826 ft | 230 kts | 338° |
| 2026-04-20 17:49 | 50.17755 | 22.17495 | 9439 ft | 234 kts | 322° |
| 2026-04-20 17:49 | 50.18713 | 22.15446 | 10007 ft | 240 kts | 290° |
| 2026-04-20 17:49 | 50.19102 | 22.12928 | 10593 ft | 243 kts | 282° |
| 2026-04-20 17:49 | 50.19435 | 22.10347 | 11182 ft | 245 kts | 284° |
| 2026-04-20 17:50 | 50.19791 | 22.07750 | 11762 ft | 247 kts | 283° |
| 2026-04-20 17:50 | 50.20123 | 22.05149 | 12328 ft | 249 kts | 283° |
| 2026-04-20 17:50 | 50.20457 | 22.02492 | 12878 ft | 251 kts | 283° |
| 2026-04-20 17:50 | 50.20778 | 21.99828 | 13437 ft | 253 kts | 282° |
| 2026-04-20 17:51 | 50.21098 | 21.97112 | 14010 ft | 255 kts | 282° |
| 2026-04-20 17:51 | 50.21403 | 21.94439 | 14575 ft | 256 kts | 282° |
| 2026-04-20 17:51 | 50.21703 | 21.91707 | 15154 ft | 257 kts | 282° |
| 2026-04-20 17:51 | 50.22011 | 21.88952 | 15714 ft | 258 kts | 281° |
| 2026-04-20 17:52 | 50.22315 | 21.86220 | 16257 ft | 259 kts | 281° |
| 2026-04-20 17:52 | 50.22621 | 21.83456 | 16764 ft | 259 kts | 281° |
| 2026-04-20 17:52 | 50.22929 | 21.80682 | 17212 ft | 261 kts | 281° |
| 2026-04-20 17:52 | 50.23235 | 21.77910 | 17632 ft | 263 kts | 281° |
| 2026-04-20 17:53 | 50.23544 | 21.75093 | 18035 ft | 266 kts | 281° |
| 2026-04-20 17:53 | 50.23849 | 21.72253 | 18404 ft | 271 kts | 280° |
| 2026-04-20 17:53 | 50.24341 | 21.69396 | 18701 ft | 276 kts | 296° |
| 2026-04-20 17:53 | 50.25225 | 21.66772 | 18980 ft | 282 kts | 299° |
| 2026-04-20 17:54 | 50.26144 | 21.63983 | 19182 ft | 292 kts | 297° |
| 2026-04-20 17:54 | 50.27075 | 21.61089 | 19251 ft | 306 kts | 297° |
| 2026-04-20 17:54 | 50.28062 | 21.58046 | 19128 ft | 324 kts | 297° |
| 2026-04-20 17:54 | 50.29105 | 21.54806 | 18736 ft | 348 kts | 297° |
| 2026-04-20 17:55 | 50.30206 | 21.51381 | 18754 ft | 357 kts | 297° |
| 2026-04-20 17:55 | 50.31307 | 21.47951 | 19027 ft | 357 kts | 297° |
| 2026-04-20 17:55 | 50.32422 | 21.44478 | 19285 ft | 358 kts | 297° |
| 2026-04-20 17:55 | 50.33530 | 21.41025 | 19555 ft | 358 kts | 297° |
| 2026-04-20 17:56 | 50.34645 | 21.37538 | 19833 ft | 367 kts | 297° |
| 2026-04-20 17:56 | 50.35822 | 21.33854 | 20088 ft | 385 kts | 296° |
| 2026-04-20 17:56 | 50.37024 | 21.30066 | 20242 ft | 400 kts | 296° |
| 2026-04-20 17:56 | 50.38356 | 21.26182 | 20242 ft | 411 kts | 304° |
| 2026-04-20 17:57 | 50.40300 | 21.22912 | 20183 ft | 417 kts | 321° |
| 2026-04-20 17:57 | 50.42816 | 21.20674 | 20115 ft | 410 kts | 336° |
| 2026-04-20 17:57 | 50.45441 | 21.18999 | 20074 ft | 404 kts | 337° |
| 2026-04-20 17:57 | 50.48029 | 21.17334 | 20032 ft | 402 kts | 338° |
| 2026-04-20 17:58 | 50.50622 | 21.15753 | 20013 ft | 401 kts | 339° |
| 2026-04-20 17:58 | 50.53208 | 21.14179 | 20005 ft | 400 kts | 339° |
| 2026-04-20 17:58 | 50.55787 | 21.12639 | 20014 ft | 400 kts | 339° |
| 2026-04-20 17:58 | 50.58394 | 21.11086 | 20018 ft | 400 kts | 339° |
| 2026-04-20 17:59 | 50.60990 | 21.09548 | 20018 ft | 400 kts | 339° |
| 2026-04-20 17:59 | 50.63586 | 21.08018 | 20016 ft | 400 kts | 339° |
| 2026-04-20 17:59 | 50.66208 | 21.06473 | 20015 ft | 401 kts | 339° |
| 2026-04-20 17:59 | 50.68818 | 21.04937 | 20010 ft | 402 kts | 339° |
| 2026-04-20 18:00 | 50.71413 | 21.03409 | 20013 ft | 402 kts | 339° |
| 2026-04-20 18:00 | 50.74044 | 21.01859 | 20015 ft | 402 kts | 339° |
| 2026-04-20 18:00 | 50.76665 | 21.00308 | 20021 ft | 402 kts | 339° |
| 2026-04-20 18:00 | 50.79248 | 20.98780 | 20024 ft | 402 kts | 339° |
| 2026-04-20 18:01 | 50.81896 | 20.97215 | 20023 ft | 402 kts | 339° |
| 2026-04-20 18:01 | 50.84504 | 20.95670 | 20015 ft | 402 kts | 339° |
| 2026-04-20 18:01 | 50.87118 | 20.94118 | 20017 ft | 402 kts | 339° |
| 2026-04-20 18:01 | 50.89692 | 20.92589 | 20019 ft | 401 kts | 339° |
| 2026-04-20 18:02 | 50.92300 | 20.91041 | 20025 ft | 401 kts | 339° |
| 2026-04-20 18:02 | 50.94934 | 20.89475 | 20027 ft | 401 kts | 339° |
| 2026-04-20 18:02 | 50.97506 | 20.87950 | 20028 ft | 401 kts | 339° |
| 2026-04-20 18:02 | 51.00110 | 20.86403 | 20026 ft | 401 kts | 339° |
| 2026-04-20 18:03 | 51.02724 | 20.84846 | 20036 ft | 401 kts | 339° |
| 2026-04-20 18:03 | 51.05327 | 20.83292 | 20044 ft | 401 kts | 339° |
| 2026-04-20 18:03 | 51.07934 | 20.81730 | 20045 ft | 400 kts | 339° |
| 2026-04-20 18:03 | 51.10519 | 20.80181 | 20049 ft | 400 kts | 339° |
| 2026-04-20 18:04 | 51.13126 | 20.78616 | 20050 ft | 400 kts | 339° |
| 2026-04-20 18:04 | 51.15728 | 20.77058 | 20055 ft | 400 kts | 340° |
| 2026-04-20 18:04 | 51.18325 | 20.75495 | 20056 ft | 400 kts | 339° |
| 2026-04-20 18:04 | 51.20961 | 20.74078 | 20014 ft | 399 kts | 347° |
| 2026-04-20 18:05 | 51.26390 | 20.74778 | 19867 ft | 394 kts | 14° |
| 2026-04-20 18:05 | 51.28985 | 20.75791 | 19767 ft | 373 kts | 12° |
| 2026-04-20 18:05 | 51.31438 | 20.76744 | 19568 ft | 351 kts | 14° |
| 2026-04-20 18:06 | 51.33761 | 20.77680 | 19358 ft | 348 kts | 13° |
| 2026-04-20 18:06 | 51.36124 | 20.78623 | 19236 ft | 350 kts | 13° |
| 2026-04-20 18:06 | 51.38466 | 20.79569 | 19109 ft | 344 kts | 14° |
| 2026-04-20 18:06 | 51.40714 | 20.80479 | 18935 ft | 330 kts | 14° |
| 2026-04-20 18:07 | 51.42959 | 20.81393 | 18760 ft | 332 kts | 14° |
| 2026-04-20 18:07 | 51.45186 | 20.82300 | 18640 ft | 335 kts | 14° |
| 2026-04-20 18:07 | 51.47451 | 20.83229 | 18541 ft | 337 kts | 14° |
| 2026-04-20 18:07 | 51.49721 | 20.84162 | 18414 ft | 337 kts | 14° |
| 2026-04-20 18:08 | 51.51967 | 20.85086 | 18297 ft | 334 kts | 14° |
| 2026-04-20 18:08 | 51.54178 | 20.85997 | 18138 ft | 326 kts | 14° |
| 2026-04-20 18:08 | 51.56392 | 20.86910 | 18009 ft | 329 kts | 14° |
| 2026-04-20 18:08 | 51.58594 | 20.87822 | 17914 ft | 333 kts | 14° |
| 2026-04-20 18:09 | 51.60851 | 20.88756 | 17819 ft | 334 kts | 14° |
| 2026-04-20 18:09 | 51.63097 | 20.89687 | 17715 ft | 334 kts | 14° |
| 2026-04-20 18:09 | 51.65303 | 20.90599 | 17579 ft | 323 kts | 14° |
| 2026-04-20 18:09 | 51.67452 | 20.91487 | 17415 ft | 321 kts | 14° |
| 2026-04-20 18:10 | 51.69615 | 20.92385 | 17298 ft | 324 kts | 14° |
| 2026-04-20 18:10 | 51.71803 | 20.93294 | 17248 ft | 327 kts | 14° |
| 2026-04-20 18:10 | 51.73981 | 20.94201 | 17230 ft | 328 kts | 14° |
| 2026-04-20 18:10 | 51.76196 | 20.95129 | 17233 ft | 328 kts | 14° |
| 2026-04-20 18:11 | 51.78390 | 20.96051 | 17243 ft | 328 kts | 14° |
| 2026-04-20 18:11 | 51.80650 | 20.96699 | 17064 ft | 332 kts | 2° |
| 2026-04-20 18:11 | 51.82941 | 20.96698 | 16719 ft | 335 kts | 0° |
| 2026-04-20 18:11 | 51.85248 | 20.96742 | 16224 ft | 329 kts | 1° |
| 2026-04-20 18:12 | 51.87519 | 20.96777 | 15636 ft | 321 kts | 1° |
| 2026-04-20 18:12 | 51.89690 | 20.96815 | 15102 ft | 309 kts | 1° |
| 2026-04-20 18:12 | 51.91834 | 20.96856 | 14682 ft | 311 kts | 2° |
| 2026-04-20 18:12 | 51.93964 | 20.96909 | 14456 ft | 313 kts | 2° |
| 2026-04-20 18:13 | 51.96133 | 20.97051 | 14117 ft | 318 kts | 4° |
| 2026-04-20 18:13 | 51.98268 | 20.97210 | 13561 ft | 317 kts | 4° |
| 2026-04-20 18:13 | 52.00474 | 20.97359 | 12846 ft | 311 kts | 4° |
| 2026-04-20 18:13 | 52.02541 | 20.97509 | 12113 ft | 292 kts | 4° |
| 2026-04-20 18:14 | 52.04518 | 20.97567 | 11564 ft | 287 kts | 355° |
| 2026-04-20 18:14 | 52.06417 | 20.96533 | 11090 ft | 289 kts | 329° |
| 2026-04-20 18:14 | 52.07800 | 20.94366 | 10701 ft | 283 kts | 304° |
| 2026-04-20 18:14 | 52.08647 | 20.91534 | 10572 ft | 275 kts | 297° |
| 2026-04-20 18:15 | 52.09450 | 20.88746 | 10663 ft | 274 kts | 299° |
| 2026-04-20 18:15 | 52.10294 | 20.85980 | 10880 ft | 276 kts | 299° |
| 2026-04-20 18:15 | 52.11136 | 20.83186 | 11091 ft | 281 kts | 299° |
| 2026-04-20 18:15 | 52.11983 | 20.80381 | 11256 ft | 285 kts | 299° |
| 2026-04-20 18:16 | 52.12850 | 20.77430 | 11186 ft | 293 kts | 297° |
| 2026-04-20 18:16 | 52.13694 | 20.74364 | 10718 ft | 300 kts | 297° |
| 2026-04-20 18:16 | 52.14529 | 20.71364 | 10372 ft | 287 kts | 297° |
| 2026-04-20 18:16 | 52.15351 | 20.68416 | 10148 ft | 285 kts | 297° |
| 2026-04-20 18:17 | 52.16161 | 20.65511 | 9746 ft | 285 kts | 297° |
| 2026-04-20 18:17 | 52.16965 | 20.62601 | 9354 ft | 280 kts | 297° |
| 2026-04-20 18:17 | 52.17755 | 20.59723 | 9106 ft | 275 kts | 297° |
| 2026-04-20 18:17 | 52.18532 | 20.56897 | 8868 ft | 278 kts | 298° |
| 2026-04-20 18:18 | 52.19340 | 20.54008 | 8381 ft | 283 kts | 297° |
| 2026-04-20 18:18 | 52.20133 | 20.51124 | 8160 ft | 275 kts | 297° |
| 2026-04-20 18:18 | 52.20902 | 20.48314 | 8033 ft | 273 kts | 297° |
| 2026-04-20 18:18 | 52.21698 | 20.45448 | 7559 ft | 283 kts | 297° |
| 2026-04-20 18:19 | 52.22490 | 20.42577 | 7215 ft | 279 kts | 297° |
| 2026-04-20 18:19 | 52.23373 | 20.39793 | 6892 ft | 274 kts | 313° |
| 2026-04-20 18:19 | 52.24788 | 20.37837 | 6298 ft | 269 kts | 340° |
| 2026-04-20 18:19 | 52.26529 | 20.37203 | 5849 ft | 245 kts | 9° |
| 2026-04-20 18:20 | 52.28018 | 20.37980 | 5618 ft | 210 kts | 41° |
| 2026-04-20 18:20 | 52.28888 | 20.39602 | 5470 ft | 183 kts | 60° |
| 2026-04-20 18:20 | 52.29551 | 20.41353 | 5539 ft | 187 kts | 60° |
| 2026-04-20 18:20 | 52.29946 | 20.43449 | 5590 ft | 207 kts | 90° |
| 2026-04-20 18:21 | 52.29656 | 20.45815 | 5544 ft | 217 kts | 104° |
| 2026-04-20 18:21 | 52.29252 | 20.48156 | 5389 ft | 214 kts | 102° |
| 2026-04-20 18:21 | 52.28903 | 20.50449 | 5234 ft | 204 kts | 102° |
| 2026-04-20 18:21 | 52.28571 | 20.52596 | 5100 ft | 189 kts | 101° |
| 2026-04-20 18:22 | 52.28272 | 20.54602 | 4872 ft | 177 kts | 100° |
| 2026-04-20 18:22 | 52.27891 | 20.56450 | 4447 ft | 179 kts | 112° |
| 2026-04-20 18:22 | 52.27333 | 20.58282 | 3956 ft | 182 kts | 112° |
| 2026-04-20 18:22 | 52.26810 | 20.60094 | 3704 ft | 171 kts | 111° |
| 2026-04-20 18:23 | 52.26324 | 20.61776 | 3552 ft | 158 kts | 111° |
| 2026-04-20 18:23 | 52.25869 | 20.63389 | 3519 ft | 160 kts | 111° |
| 2026-04-20 18:23 | 52.25390 | 20.65106 | 3654 ft | 170 kts | 111° |
| 2026-04-20 18:23 | 52.24898 | 20.66862 | 3758 ft | 175 kts | 111° |
| 2026-04-20 18:24 | 52.24400 | 20.68646 | 3778 ft | 178 kts | 110° |
| 2026-04-20 18:24 | 52.23891 | 20.70481 | 3721 ft | 178 kts | 110° |
| 2026-04-20 18:24 | 52.23380 | 20.72327 | 3476 ft | 179 kts | 110° |
| 2026-04-20 18:24 | 52.22885 | 20.74116 | 3224 ft | 175 kts | 110° |
| 2026-04-20 18:25 | 52.22407 | 20.75846 | 2986 ft | 171 kts | 110° |
| 2026-04-20 18:25 | 52.21947 | 20.77490 | 2843 ft | 158 kts | 111° |
| 2026-04-20 18:25 | 52.21500 | 20.79111 | 2643 ft | 167 kts | 110° |
| 2026-04-20 18:25 | 52.21058 | 20.80689 | 2491 ft | 173 kts | 111° |
| 2026-04-20 18:26 | 52.20652 | 20.82146 | 2319 ft | 176 kts | 111° |
| 2026-04-20 18:26 | 52.20180 | 20.83851 | 2075 ft | 175 kts | 111° |
| 2026-04-20 18:26 | 52.19607 | 20.85902 | 1828 ft | 154 kts | 111° |
| 2026-04-20 18:26 | 52.19210 | 20.87296 | 1585 ft | 141 kts | 111° |
| 2026-04-20 18:27 | 52.18567 | 20.89667 | 1034 ft | 128 kts | 110° |
| 2026-04-20 18:27 | 52.18214 | 20.90877 | 803 ft | 132 kts | 114° |
| 2026-04-20 18:27 | 52.17794 | 20.92322 | 745 ft | 132 kts | 110° |
| 2026-04-20 18:28 | 52.17449 | 20.93552 | 583 ft | 138 kts | 112° |
| 2026-04-20 18:28 | 52.17175 | 20.94565 | 430 ft | 137 kts | 111° |
| 2026-04-20 18:28 | 52.16854 | 20.95728 | 349 ft | 102 kts | 115° |
| 2026-04-20 18:28 | 52.16644 | 20.96466 | 337 ft | 38 kts | 113° |
| 2026-04-20 18:29 | 52.16556 | 20.96776 | 336 ft | 41 kts | 114° |
| 2026-04-20 18:29 | 52.16473 | 20.97074 | 339 ft | 41 kts | 114° |
| 2026-04-20 18:29 | 52.16375 | 20.97427 | 340 ft | 37 kts | 115° |
| 2026-04-20 18:29 | 52.16277 | 20.97770 | 337 ft | 33 kts | 114° |
| 2026-04-20 18:30 | 52.16200 | 20.98034 | 337 ft | 29 kts | 115° |
| 2026-04-20 18:30 | 52.16141 | 20.98254 | 337 ft | 14 kts | 113° |
| 2026-04-20 18:30 | 52.16102 | 20.98340 | 337 ft | 8 kts | 159° |
| 2026-04-20 18:30 | 52.16056 | 20.98335 | 337 ft | 5 kts | 195° |
| 2026-04-20 18:31 | 52.16025 | 20.98318 | 337 ft | 5 kts | 202° |
| 2026-04-20 18:31 | 52.15958 | 20.98269 | 338 ft | 15 kts | 205° |
| 2026-04-20 18:31 | 52.15863 | 20.98195 | 340 ft | 13 kts | 205° |
| 2026-04-20 18:31 | 52.15788 | 20.98140 | 340 ft | 12 kts | 204° |
| 2026-04-20 18:32 | 52.15716 | 20.98087 | 339 ft | 9 kts | 205° |
| 2026-04-20 18:32 | 52.15667 | 20.98049 | 340 ft | 7 kts | 205° |
| 2026-04-20 18:32 | 52.15625 | 20.98018 | 341 ft | 8 kts | 203° |
| 2026-04-20 18:32 | 52.15548 | 20.98010 | 343 ft | 13 kts | 156° |
| 2026-04-20 18:33 | 52.15472 | 20.98071 | 344 ft | 10 kts | 152° |
| 2026-04-20 18:33 | 52.15422 | 20.98115 | 344 ft | 5 kts | 152° |
| 2026-04-20 18:33 | 52.15397 | 20.98136 | 344 ft | 5 kts | 152° |
| 2026-04-20 18:33 | 52.15343 | 20.98184 | 344 ft | 9 kts | 151° |
| 2026-04-20 18:34 | 52.15317 | 20.98210 | 344 ft | 1 kts | 131° |
| 2026-04-20 18:34 | 52.15321 | 20.98283 | 344 ft | 7 kts | 65° |
| 2026-04-20 18:34 | 52.15338 | 20.98341 | 344 ft | 2 kts | 62° |
| 2026-04-20 18:34 | 52.15340 | 20.98348 | 344 ft | 0 kts | 62° |
| 2026-04-20 18:35 | 52.15340 | 20.98349 | 344 ft | 0 kts | 62° |